WetterOnline ( https://www.wetteronline.de )

Wetter aktuell Schöningen

Aktuelles Wetter: Ummendorf (163m)

6-stündlich | Neueste Meldungen
Ortszeit Temperatur Wetter
So, 14.04. 14:00 14.2° C wolkig
So, 14.04. 8:00 13.7° C bewölkt
So, 14.04. 2:00 14.8° C wolkig
Sa, 13.04. 20:00 18.1° C wolkig
Sa, 13.04. 14:00 19.8° C bedeckt
Sa, 13.04. 8:00 13.3° C wolkig
Sa, 13.04. 2:00 12.5° C bedeckt
Fr, 12.04. 20:00 16.0° C bedeckt
Ortszeit Temperatur Wetter
So, 14.04. 14:00 14.2° C wolkig
So, 14.04. 13:40 14.5° C bewölkt
So, 14.04. 13:30 13.8° C bewölkt
So, 14.04. 13:20 13.8° C bewölkt
So, 14.04. 13:10 14.3° C bedeckt
So, 14.04. 13:00 14.6° C wolkig
So, 14.04. 12:50 14.6° C wolkig
So, 14.04. 12:30 14.2° C wolkig
So, 14.04. 12:00 14.2° C wolkig
So, 14.04. 11:30 14.1° C bewölkt
So, 14.04. 11:00 14.0° C bedeckt
Ortszeit Relative Feuchte Sichtweite
So, 14.04. 14:00 45% 50 km
So, 14.04. 8:00 73% 55 km
So, 14.04. 2:00 77% 50 km
Sa, 13.04. 20:00 70% 55 km
Sa, 13.04. 14:00 64% 55 km
Sa, 13.04. 8:00 87% 30 km
Sa, 13.04. 2:00 88% 35 km
Fr, 12.04. 20:00 75% 55 km
Ortszeit Relative Feuchte Sichtweite
So, 14.04. 14:00 45% 50 km
So, 14.04. 13:40 50% -
So, 14.04. 13:30 48% 55 km
So, 14.04. 13:20 48% -
So, 14.04. 13:10 49% -
So, 14.04. 13:00 49% 50 km
So, 14.04. 12:50 49% -
So, 14.04. 12:30 53% 55 km
So, 14.04. 12:00 57% 45 km
So, 14.04. 11:30 51% 50 km
So, 14.04. 11:00 57% 65 km
Ortszeit Niederschlagsmenge Niederschlagsart
So, 14.04. 14:00 0.0 l/m2 in 6 Std. -
So, 14.04. 8:00 0.0 l/m2 in 12 Std. -
So, 14.04. 2:00 0.0 l/m2 in 6 Std. -
Sa, 13.04. 20:00 0.0 l/m2 in 12 Std. -
Sa, 13.04. 14:00 0.0 l/m2 in 6 Std. -
Sa, 13.04. 8:00 0.0 l/m2 in 12 Std. -
Sa, 13.04. 2:00 0.0 l/m2 in 6 Std. -
Fr, 12.04. 20:00 0.0 l/m2 in 12 Std. -
Ortszeit Niederschlagsmenge Niederschlagsart
So, 14.04. 14:00 0.0 l/m2 in 1 Std. -
So, 14.04. 13:40 keine Meldung -
So, 14.04. 13:30 0.0 l/m2 in 30 Min -
So, 14.04. 13:20 keine Meldung -
So, 14.04. 13:10 keine Meldung -
So, 14.04. 13:00 0.0 l/m2 in 1 Std. -
So, 14.04. 12:50 keine Meldung -
So, 14.04. 12:30 0.0 l/m2 in 30 Min -
So, 14.04. 12:00 0.0 l/m2 in 1 Std. -
So, 14.04. 11:30 0.0 l/m2 in 30 Min -
So, 14.04. 11:00 0.0 l/m2 in 1 Std. -
Ortszeit Stärke Spitze Richtung
km/h Bft. km/h Grad Sektor
So, 14.04. 14:00 37 5 54 290° W
So, 14.04. 8:00 26 4 48 280° W
So, 14.04. 2:00 17 3 33 250° W
Sa, 13.04. 20:00 9 2 48 190° S
Sa, 13.04. 14:00 35 5 52 250° W
Sa, 13.04. 8:00 15 3 22 260° W
Sa, 13.04. 2:00 15 3 28 260° W
Fr, 12.04. 20:00 22 4 43 250° W
Ortszeit Stärke Spitze Richtung
km/h Bft. km/h Grad Sektor
So, 14.04. 14:00 37 5 54 290° W
So, 14.04. 13:40 37 5 - 300° NW
So, 14.04. 13:30 35 5 46 300° NW
So, 14.04. 13:20 35 5 - 300° NW
So, 14.04. 13:10 33 5 - 300° NW
So, 14.04. 13:00 40 6 50 300° NW
So, 14.04. 12:50 40 6 - 300° NW
So, 14.04. 12:30 33 5 46 300° NW
So, 14.04. 12:00 29 5 50 310° NW
So, 14.04. 11:30 35 5 50 310° NW
So, 14.04. 11:00 31 5 44 310° NW
Ortszeit Untergrenze Bedeckung Gattung
total tief tief mittel hoch
So, 14.04. 14:00 1500 m 7/8 2/8 - - -
So, 14.04. 8:00 990 m 8/8 7/8 - - -
So, 14.04. 2:00 8100 m 8/8 0/8 - - -
Sa, 13.04. 20:00 7500 m 8/8 0/8 - - -
Sa, 13.04. 14:00 6900 m 8/8 8/8 - - -
Sa, 13.04. 8:00 7500 m 8/8 0/8 - - -
Sa, 13.04. 2:00 6600 m 8/8 8/8 - - -
Fr, 12.04. 20:00 6000 m 8/8 8/8 - - -
Ortszeit Bedeckungsgrad in Achtel und Wolkenuntergrenze
So, 14.04. 14:00 2(1500m) 7(3600m) 7(7500m)
So, 14.04. 13:40 7
So, 14.04. 13:30 6(1500m) 8(3900m)
So, 14.04. 13:20 6(1500m) 8(3900m)
So, 14.04. 13:10 8
So, 14.04. 13:00 1(1440m) 8(3900m) 8(5400m)
So, 14.04. 12:50 1(1440m) 8(3900m) 8(5400m)
So, 14.04. 12:30 1(1500m) 8(3900m) 8(4800m)
So, 14.04. 12:00 2(1470m) 8(4200m) 8(5700m)
So, 14.04. 11:30 4(1470m) 7(4200m) 8(5700m)
So, 14.04. 11:00 3(4500m) 8(5700m) 8(7200m)
Ortszeit Luftdruck NN (hPa) Tendenz (hPa in 3 Std.)
So, 14.04. 14:00 1020 + 0,4
So, 14.04. 8:00 1018 + 1,6
So, 14.04. 2:00 1016 - 1,2
Sa, 13.04. 20:00 1019 - 2,3
Sa, 13.04. 14:00 1024 - 1,2
Sa, 13.04. 8:00 1026 0,0
Sa, 13.04. 2:00 1027 - 0,4
Fr, 12.04. 20:00 1027 - 1,1
Ortszeit Luftdruck NN (hPa) Tendenz (hPa in 3 Std.)
So, 14.04. 14:00 1020 + 0,4
So, 14.04. 13:40 1020 keine Meldung
So, 14.04. 13:30 1020 + 0,6
So, 14.04. 13:20 1020 keine Meldung
So, 14.04. 13:10 1020 keine Meldung
So, 14.04. 13:00 1020 + 0,6
So, 14.04. 12:50 1020 keine Meldung
So, 14.04. 12:30 1020 + 1,0
So, 14.04. 12:00 1020 + 1,0
So, 14.04. 11:30 1020 + 1,3
So, 14.04. 11:00 1020 + 1,7
Ortszeit Schneehöhe (cm)
So, 14.04. 14:00 0
So, 14.04. 8:00 0
So, 14.04. 2:00 0
Sa, 13.04. 20:00 0
Sa, 13.04. 14:00 0
Sa, 13.04. 8:00 0
Sa, 13.04. 2:00 0
Fr, 12.04. 20:00 0
Ortszeit Schneehöhe (cm)
So, 14.04. 14:00 0
So, 14.04. 13:40 -
So, 14.04. 13:30 0
So, 14.04. 13:20 0
So, 14.04. 13:10 -
So, 14.04. 13:00 0
So, 14.04. 12:50 0
So, 14.04. 12:30 0
So, 14.04. 12:00 0
So, 14.04. 11:30 0
So, 14.04. 11:00 0
Link zu dieser Seite / Seite empfehlen

Das Wetter in ...